Terminal Aerodrome Forecast
Issued by NWS Upton, NY

Home | Current Version | Previous Version | Text Only | Print | Product List | Glossary On
Versions: 1 2 3 4 5 6 7 8 9 10 11 12 13 14 15 16 17 18 19 20 21 22 23 24 25 26 27 28 29 30 31 32 33 34 35 36 37 38
000
FTUS41 KOKX 240700 AAA
TAFLGA
TAF AMD
KLGA 240701Z 2407/2506 33011KT P6SM FEW025 BKN045
      TEMPO 2407/2409 BKN025
     FM240900 33011KT P6SM VCSH FEW030 BKN050
     FM241500 32016G24KT P6SM SCT030 BKN050
     FM242200 32013KT P6SM SCT050
     FM250400 31009KT P6SM SCT250=

USA.gov is the U.S. government's official web portal to all federal, state and local government web resources and services.